Time;durP1;ratioP1;P1;durP2;ratioP2;P2;SDS_P1;SDS_P2;PMS_P1;PMS_P2;Temp;Humidity;BMP_temperature;BMP_pressure;BME280_temperature;BME280_humidity;BME280_pressure;Samples;Min_cycle;Max_cycle;Signal;HPM_P1;HPM_P2
2022/06/12 00:01:07;;;;;;;4.15;2.42;;;;;;;17.37;70.97;100933.47;5102158;28;20056;-60
2022/06/12 00:03:34;;;;;;;5.15;2.85;;;;;;;17.33;71.15;100933.34;5094454;28;20048;-59
2022/06/12 00:06:07;;;;;;;3.40;2.42;;;;;;;17.29;71.19;100937.22;5094273;28;20058;-61
2022/06/12 00:08:38;;;;;;;4.90;2.95;;;;;;;17.24;71.17;100938.25;5094604;28;20515;-59
2022/06/12 00:11:08;;;;;;;6.05;3.25;;;;;;;17.20;71.49;100940.13;5094311;28;20052;-60
2022/06/12 00:13:37;;;;;;;;;;;;;;;17.16;71.51;100936.34;5097843;28;20051;-59
2022/06/12 00:16:05;;;;;;;6.87;3.07;;;;;;;17.14;71.36;100941.50;5114102;28;20398;-59
2022/06/12 00:18:33;;;;;;;6.97;3.00;;;;;;;17.11;71.50;100930.94;5114107;28;20404;-59
2022/06/12 00:21:12;;;;;;;6.05;3.35;;;;;;;17.04;71.71;100940.75;5113933;28;20058;-59
2022/06/12 00:23:46;;;;;;;7.60;3.70;;;;;;;16.99;72.00;100940.19;5113755;28;20456;-59
2022/06/12 00:26:16;;;;;;;5.05;3.17;;;;;;;16.90;72.36;100945.88;5107567;28;20057;-58
2022/06/12 00:28:44;;;;;;;5.97;3.30;;;;;;;16.94;72.26;100943.19;5098997;28;20059;-59
2022/06/12 00:31:11;;;;;;;5.28;3.40;;;;;;;16.93;72.25;100941.56;5112520;28;20055;-59
2022/06/12 00:33:38;;;;;;;5.40;3.40;;;;;;;16.93;72.23;100941.56;5113301;28;20170;-59
2022/06/12 00:36:07;;;;;;;6.03;3.92;;;;;;;16.94;72.42;100941.19;5111315;28;20476;-60
2022/06/12 00:38:35;;;;;;;5.75;3.17;;;;;;;16.96;72.47;100933.22;5113721;28;20052;-59
2022/06/12 00:41:03;;;;;;;6.22;3.13;;;;;;;17.01;72.02;100933.03;5113625;28;20051;-60
2022/06/12 00:43:31;;;;;;;5.43;3.17;;;;;;;17.02;71.62;100940.28;5113743;28;20048;-60
2022/06/12 00:46:01;;;;;;;6.22;3.47;;;;;;;17.00;71.82;100939.81;5113982;28;20052;-59
2022/06/12 00:48:33;;;;;;;4.30;3.03;;;;;;;16.98;71.85;100942.16;5113518;28;20059;-60
2022/06/12 00:51:05;;;;;;;5.22;3.25;;;;;;;16.97;72.10;100946.16;5108099;28;20047;-59
2022/06/12 00:53:37;;;;;;;9.98;3.70;;;;;;;16.99;72.13;100946.63;5113690;28;20475;-59
2022/06/12 00:56:12;;;;;;;6.82;3.63;;;;;;;16.98;72.08;100939.34;5112887;28;20495;-60
2022/06/12 00:58:43;;;;;;;4.85;3.40;;;;;;;16.94;72.15;100946.00;5107266;28;20054;-57
2022/06/12 01:01:14;;;;;;;4.28;3.13;;;;;;;16.93;72.30;100950.81;5100751;28;20059;-58
2022/06/12 01:06:35;;;;;;;5.95;3.10;;;;;;;16.71;72.60;100942.72;5092046;28;20058;-59
2022/06/12 01:09:07;;;;;;;6.72;3.72;;;;;;;16.71;72.45;100940.72;5092429;28;20412;-59
2022/06/12 01:11:38;;;;;;;6.93;3.80;;;;;;;16.69;72.42;100936.59;5092775;28;20503;-58
2022/06/12 01:14:08;;;;;;;5.20;3.78;;;;;;;16.63;72.57;100931.22;5094034;28;20069;-59
2022/06/12 01:16:39;;;;;;;8.70;3.97;;;;;;;16.61;72.77;100930.72;5112817;28;20048;-59
2022/06/12 01:19:08;;;;;;;5.28;3.80;;;;;;;16.57;72.75;100935.41;5112905;28;20059;-60
2022/06/12 01:22:00;;;;;;;6.43;3.88;;;;;;;16.55;72.85;100932.09;5113015;28;20055;-59
2022/06/12 01:24:42;;;;;;;5.45;3.78;;;;;;;16.54;72.98;100927.63;5112246;28;20055;-59
2022/06/12 01:27:38;;;;;;;6.30;3.88;;;;;;;16.52;73.17;100941.22;5111423;28;20055;-59
2022/06/12 01:30:12;;;;;;;5.38;3.38;;;;;;;16.55;73.17;100925.66;5104588;28;20047;-59
2022/06/12 01:32:45;;;;;;;5.65;3.80;;;;;;;16.50;73.21;100931.47;5112420;28;20047;-58
2022/06/12 01:35:21;;;;;;;6.68;4.35;;;;;;;16.47;73.28;100933.00;5112784;28;20060;-59
2022/06/12 01:37:56;;;;;;;6.65;4.10;;;;;;;16.48;73.13;100940.25;5112291;28;20052;-59
2022/06/12 01:40:33;;;;;;;4.90;3.33;;;;;;;16.50;73.19;100935.09;5112900;28;20058;-59
2022/06/12 01:43:12;;;;;;;7.28;4.22;;;;;;;16.48;73.20;100929.00;5112209;28;20058;-60
2022/06/12 01:45:46;;;;;;;8.70;3.90;;;;;;;16.48;73.10;100937.44;5107823;28;20495;-58
2022/06/12 01:48:29;;;;;;;6.88;4.03;;;;;;;16.47;73.08;100926.56;5112712;28;20055;-60
2022/06/12 01:51:07;;;;;;;8.30;4.05;;;;;;;16.46;73.01;100924.91;5112710;28;20051;-60
2022/06/12 01:53:40;;;;;;;7.03;4.10;;;;;;;16.44;73.02;100923.25;5112283;28;20404;-58
2022/06/12 01:56:16;;;;;;;8.07;4.00;;;;;;;16.41;73.09;100923.94;5087054;28;20126;-60
2022/06/12 01:58:50;;;;;;;6.90;4.15;;;;;;;16.38;73.05;100923.81;5091573;28;20052;-59
2022/06/12 02:01:33;;;;;;;6.72;4.28;;;;;;;16.32;73.17;100928.81;5077666;28;20057;-57
2022/06/12 02:04:08;;;;;;;6.43;4.43;;;;;;;16.27;73.06;100925.38;5090224;28;20055;-60
2022/06/12 02:06:40;;;;;;;7.80;4.85;;;;;;;16.21;73.18;100928.41;5092277;28;20480;-60
2022/06/12 02:09:14;;;;;;;5.82;4.25;;;;;;;16.16;73.36;100931.41;5092131;28;20048;-60
2022/06/12 02:14:37;;;;;;;7.65;4.75;;;;;;;16.07;73.43;100929.81;5068023;28;20476;-60
2022/06/12 02:17:10;;;;;;;8.35;5.10;;;;;;;16.01;73.92;100935.63;5091213;28;20052;-60
2022/06/12 02:19:43;;;;;;;8.85;5.00;;;;;;;15.98;73.93;100938.28;5091914;28;20056;-61
2022/06/12 02:22:15;;;;;;;10.60;4.93;;;;;;;15.94;73.94;100931.72;5091720;28;20056;-60
2022/06/12 02:24:47;;;;;;;7.07;4.47;;;;;;;15.87;74.12;100940.66;5091903;28;20059;-53
2022/06/12 02:27:19;;;;;;;7.65;4.40;;;;;;;15.85;73.99;100937.38;5091486;28;20047;-53
2022/06/12 02:29:52;;;;;;;7.65;4.47;;;;;;;15.81;74.05;100933.59;5087828;28;20063;-54
2022/06/12 02:32:24;;;;;;;6.03;4.28;;;;;;;15.71;74.23;100937.59;5092081;28;20052;-53
2022/06/12 02:34:58;;;;;;;9.90;5.43;;;;;;;15.68;74.27;100929.81;5091729;28;20063;-53
2022/06/12 02:37:42;;;;;;;9.02;4.78;;;;;;;15.61;74.37;100932.34;5093357;28;20052;-53
2022/06/12 02:40:16;;;;;;;9.50;4.80;;;;;;;15.53;74.65;100933.22;5095856;28;20446;-54
2022/06/12 02:42:48;;;;;;;6.57;4.25;;;;;;;15.49;74.94;100929.44;5095459;28;20487;-53
2022/06/12 02:45:19;;;;;;;7.15;4.47;;;;;;;15.46;74.37;100927.31;5092925;28;20059;-53
2022/06/12 02:47:49;;;;;;;8.27;4.28;;;;;;;15.37;74.31;100933.78;5095574;28;20488;-54
2022/06/12 02:50:21;;;;;;;9.13;5.05;;;;;;;15.35;74.73;100929.63;5095803;28;20484;-54
2022/06/12 02:52:55;;;;;;;10.52;4.22;;;;;;;15.33;74.55;100938.41;5094992;28;20484;-54
2022/06/12 02:55:28;;;;;;;6.80;4.95;;;;;;;15.28;75.03;100935.78;5103444;28;20073;-53
2022/06/12 02:58:07;;;;;;;9.18;5.03;;;;;;;15.25;75.10;100936.44;5116085;28;20059;-54
2022/06/12 03:00:42;;;;;;;9.43;5.03;;;;;;;15.20;74.96;100933.81;5107947;28;20391;-54
2022/06/12 03:03:20;;;;;;;6.68;4.63;;;;;;;15.14;75.58;100935.16;5095341;28;20051;-54
2022/06/12 03:05:51;;;;;;;5.50;4.20;;;;;;;15.11;75.24;100936.66;5095100;28;20059;-53
2022/06/12 03:08:22;;;;;;;7.70;5.30;;;;;;;15.05;75.35;100937.97;5094964;28;20044;-52
2022/06/12 03:10:54;;;;;;;8.45;4.68;;;;;;;15.06;75.37;100934.03;5102763;28;20050;-53
2022/06/12 03:13:25;;;;;;;6.65;4.45;;;;;;;15.04;75.11;100930.72;5115519;28;20050;-53
2022/06/12 03:15:55;;;;;;;6.88;4.60;;;;;;;15.01;75.22;100939.81;5100717;28;20507;-53
2022/06/12 03:18:27;;;;;;;5.90;4.40;;;;;;;14.96;75.21;100929.59;5094948;28;20230;-53
2022/06/12 03:21:10;;;;;;;9.77;4.63;;;;;;;14.94;75.14;100928.28;5094728;28;20056;-51
2022/06/12 03:23:50;;;;;;;9.40;4.60;;;;;;;14.89;75.28;100928.44;5095054;28;20048;-52
2022/06/12 03:26:27;;;;;;;8.65;4.60;;;;;;;14.82;75.73;100934.56;5098741;28;20054;-52
2022/06/12 03:29:05;;;;;;;9.80;4.53;;;;;;;14.79;76.14;100932.44;5114471;28;20126;-51
2022/06/12 03:31:41;;;;;;;7.85;5.13;;;;;;;14.78;75.68;100934.41;5115509;28;20074;-51
2022/06/12 03:34:17;;;;;;;6.53;4.70;;;;;;;14.74;75.92;100930.63;5114765;28;20383;-53
2022/06/12 03:36:52;;;;;;;6.15;4.70;;;;;;;14.72;76.09;100935.72;5114687;28;20156;-52
2022/06/12 03:39:27;;;;;;;9.48;5.00;;;;;;;14.71;76.21;100922.84;5114846;28;20055;-52
2022/06/12 03:42:00;;;;;;;8.43;5.32;;;;;;;14.73;76.10;100930.94;5073631;28;20489;-53
2022/06/12 03:44:38;;;;;;;6.88;4.53;;;;;;;14.72;76.10;100926.47;5074113;28;20377;-51
2022/06/12 03:47:12;;;;;;;7.47;5.40;;;;;;;14.71;75.86;100933.25;5073716;28;20061;-53
2022/06/12 03:49:46;;;;;;;7.18;4.45;;;;;;;14.70;75.83;100934.41;5074008;28;20049;-53
2022/06/12 03:52:19;;;;;;;8.18;5.28;;;;;;;14.70;75.95;100934.41;5074229;28;20056;-53
2022/06/12 03:54:53;;;;;;;8.98;4.60;;;;;;;14.69;76.34;100935.56;5086392;28;20040;-53
2022/06/12 04:00:18;;;;;;;8.70;5.35;;;;;;;14.71;76.01;100945.28;5112610;28;20408;-53
2022/06/12 04:02:49;;;;;;;6.90;5.00;;;;;;;14.75;75.87;100934.25;5093639;28;20130;-54
2022/06/12 04:05:22;;;;;;;7.63;5.03;;;;;;;14.77;75.85;100938.34;5094616;28;20062;-54
2022/06/12 04:07:54;;;;;;;5.95;4.13;;;;;;;14.75;75.71;100935.06;5093430;28;20047;-54
2022/06/12 04:10:25;;;;;;;5.82;4.80;;;;;;;14.76;75.64;100941.47;5103355;28;20052;-52
2022/06/12 04:12:53;;;;;;;8.18;5.20;;;;;;;14.73;75.90;100942.16;5113685;28;20052;-55
2022/06/12 04:15:24;;;;;;;8.48;4.80;;;;;;;14.79;76.03;100936.03;5113848;28;20054;-54
2022/06/12 04:17:52;;;;;;;6.68;4.80;;;;;;;14.81;75.81;100944.94;5107013;28;20048;-54
2022/06/12 04:20:24;;;;;;;8.30;5.40;;;;;;;14.85;75.95;100942.31;5093787;28;20051;-54
2022/06/12 04:22:58;;;;;;;7.93;5.22;;;;;;;14.86;76.11;100940.31;5093294;28;20055;-54
2022/06/12 04:25:33;;;;;;;7.97;5.18;;;;;;;14.92;75.92;100933.41;5097315;28;20051;-53
2022/06/12 04:28:01;;;;;;;7.35;5.22;;;;;;;14.94;75.96;100926.28;5113962;28;20051;-54
2022/06/12 04:30:32;;;;;;;8.50;4.88;;;;;;;14.99;75.81;100928.09;5114018;28;20051;-55
2022/06/12 04:33:18;;;;;;;10.13;5.00;;;;;;;15.07;75.64;100940.47;5113471;28;20058;-54
2022/06/12 04:35:51;;;;;;;7.68;4.75;;;;;;;15.12;75.70;100945.88;5114057;28;20043;-53
2022/06/12 04:38:19;;;;;;;8.00;5.63;;;;;;;15.16;75.63;100944.06;5113990;28;20495;-54
2022/06/12 04:40:47;;;;;;;9.68;4.47;;;;;;;15.20;75.72;100939.44;5079126;28;20409;-54
2022/06/12 04:43:15;;;;;;;9.00;5.80;;;;;;;15.29;75.49;100939.44;5073198;28;20059;-54
2022/06/12 04:45:44;;;;;;;10.60;5.72;;;;;;;15.34;75.39;100937.25;5073432;28;20060;-54
2022/06/12 04:48:18;;;;;;;7.97;5.90;;;;;;;15.38;75.51;100932.59;5073090;28;20064;-53
2022/06/12 04:50:46;;;;;;;9.60;5.20;;;;;;;15.47;75.40;100940.16;5073022;28;20048;-54
2022/06/12 04:53:16;;;;;;;8.85;5.18;;;;;;;15.55;75.25;100928.09;5072351;28;20049;-53
2022/06/12 04:55:44;;;;;;;10.15;5.72;;;;;;;15.57;75.41;100929.38;5103590;28;20062;-55
2022/06/12 04:58:11;;;;;;;7.35;4.82;;;;;;;15.67;75.04;100936.63;5113141;28;20058;-54
2022/06/12 05:00:39;;;;;;;6.50;4.95;;;;;;;15.70;75.18;100937.94;5104376;28;20055;-54
2022/06/12 05:03:06;;;;;;;6.78;4.78;;;;;;;15.79;75.35;100933.09;5092561;28;20055;-55
2022/06/12 05:05:33;;;;;;;8.35;5.13;;;;;;;15.90;74.95;100933.56;5093487;28;20051;-54
2022/06/12 05:08:02;;;;;;;8.25;5.57;;;;;;;16.00;74.55;100935.97;5092612;28;20052;-51
2022/06/12 05:10:30;;;;;;;8.27;4.95;;;;;;;16.06;74.46;100930.97;5103925;28;20055;-53
2022/06/12 05:12:57;;;;;;;8.10;5.00;;;;;;;16.15;73.97;100935.38;5113114;28;20058;-54
2022/06/12 05:15:25;;;;;;;8.27;5.25;;;;;;;16.21;73.92;100931.22;5112980;28;20055;-54
2022/06/12 05:17:52;;;;;;;10.93;6.10;;;;;;;16.31;73.56;100935.59;5112705;28;20503;-54
2022/06/12 05:20:24;;;;;;;6.55;4.57;;;;;;;16.43;73.30;100934.84;5112965;28;20054;-55
2022/06/12 05:22:52;;;;;;;9.23;5.03;;;;;;;16.52;73.05;100931.97;5112719;28;20051;-54
2022/06/12 05:25:21;;;;;;;9.63;4.65;;;;;;;16.58;72.99;100934.22;5111543;28;20055;-52
2022/06/12 05:27:49;;;;;;;8.93;4.90;;;;;;;16.67;72.92;100931.31;5112575;28;20051;-52
2022/06/12 05:30:21;;;;;;;8.02;5.07;;;;;;;16.78;72.57;100931.75;5112318;28;20491;-54
2022/06/12 05:32:50;;;;;;;8.25;5.18;;;;;;;16.88;72.18;100939.75;5112371;28;20062;-53
2022/06/12 05:35:20;;;;;;;8.48;5.10;;;;;;;16.95;71.58;100931.59;5112423;28;20486;-53
2022/06/12 05:37:48;;;;;;;8.25;4.60;;;;;;;17.07;71.08;100941.25;5112514;28;20052;-49
2022/06/12 05:40:20;;;;;;;6.60;4.55;;;;;;;17.06;70.58;100929.16;5102837;28;20048;-54
2022/06/12 05:42:49;;;;;;;6.72;4.82;;;;;;;17.19;70.48;100927.19;5106743;28;20059;-53
2022/06/12 05:45:20;;;;;;;6.00;4.97;;;;;;;17.29;69.77;100932.38;5107287;28;20066;-51
2022/06/12 05:47:51;;;;;;;6.47;4.07;;;;;;;17.39;69.05;100926.31;5112053;28;20063;-51
2022/06/12 05:50:20;;;;;;;8.43;5.18;;;;;;;17.50;68.72;100934.31;5112366;28;20074;-52
2022/06/12 05:52:47;;;;;;;;;;;;;;;17.53;68.34;100930.78;5112441;28;20055;-53
2022/06/12 05:55:15;;;;;;;8.93;4.50;;;;;;;17.58;68.54;100922.91;5105883;28;19919;-53
2022/06/12 05:57:43;;;;;;;9.05;4.75;;;;;;;17.69;68.94;100920.47;5111961;28;20052;-53
2022/06/12 06:00:18;;;;;;;6.15;4.07;;;;;;;17.79;68.80;100922.81;5107448;28;20063;-53
2022/06/12 06:02:45;;;;;;;7.47;3.97;;;;;;;17.90;68.35;100919.56;5091447;28;20408;-54
2022/06/12 06:05:14;;;;;;;7.47;4.22;;;;;;;17.99;67.93;100928.69;5091602;28;20055;-54
2022/06/12 06:07:42;;;;;;;6.82;4.28;;;;;;;18.10;66.95;100926.22;5091655;28;20052;-53
2022/06/12 06:10:17;;;;;;;10.68;4.25;;;;;;;18.20;67.34;100922.91;5098687;28;20051;-52
2022/06/12 06:12:44;;;;;;;5.50;3.67;;;;;;;18.30;66.80;100932.88;5115975;28;20062;-52
2022/06/12 06:15:16;;;;;;;7.40;3.15;;;;;;;18.41;65.02;100922.75;5108508;28;20048;-53
2022/06/12 06:17:44;;;;;;;8.23;3.95;;;;;;;18.48;64.18;100931.44;5096047;28;20052;-53
2022/06/12 06:20:15;;;;;;;12.25;3.97;;;;;;;18.54;61.19;100930.00;5095688;28;20059;-53
2022/06/12 06:22:43;;;;;;;10.32;3.88;;;;;;;18.60;61.89;100925.72;5096114;28;20048;-53
2022/06/12 06:25:11;;;;;;;5.68;3.15;;;;;;;18.66;61.08;100929.13;5108184;28;20051;-53
2022/06/12 06:27:39;;;;;;;7.78;3.45;;;;;;;18.76;60.57;100930.63;5116025;28;20051;-54
2022/06/12 06:30:07;;;;;;;6.88;3.13;;;;;;;18.81;59.94;100933.22;5115727;28;20075;-54
2022/06/12 06:32:36;;;;;;;6.45;3.30;;;;;;;18.93;60.07;100935.97;5115875;28;20059;-53
2022/06/12 06:35:05;;;;;;;7.20;3.45;;;;;;;19.04;59.85;100937.09;5115951;28;20059;-53
2022/06/12 06:37:34;;;;;;;5.10;3.20;;;;;;;19.14;58.81;100937.75;5116164;28;20055;-53
2022/06/12 06:40:01;;;;;;;9.43;2.95;;;;;;;19.23;58.48;100933.59;5103566;28;20047;-53
2022/06/12 06:42:29;;;;;;;7.25;3.03;;;;;;;19.32;58.22;100936.25;5116044;28;20058;-53
2022/06/12 06:47:43;;;;;;;6.18;2.88;;;;;;;19.50;57.65;100935.88;5122289;28;20054;-52
2022/06/12 06:50:13;;;;;;;5.85;2.80;;;;;;;19.61;57.60;100936.97;5116085;28;20051;-53
2022/06/12 06:52:41;;;;;;;7.90;3.10;;;;;;;19.68;56.91;100937.16;5116060;28;20051;-52
2022/06/12 06:55:10;;;;;;;7.97;2.97;;;;;;;19.73;56.00;100934.09;5106771;28;20062;-53
2022/06/12 06:57:39;;;;;;;6.10;3.53;;;;;;;19.82;54.84;100939.53;5115774;28;20498;-53
2022/06/12 07:00:09;;;;;;;7.88;2.70;;;;;;;19.86;53.62;100940.47;5111437;28;20044;-53
2022/06/12 07:02:36;;;;;;;8.55;2.65;;;;;;;19.96;54.13;100937.06;5095121;28;20062;-53
2022/06/12 07:05:06;;;;;;;5.15;2.33;;;;;;;20.02;53.29;100940.44;5094947;28;20477;-54
2022/06/12 07:07:34;;;;;;;6.07;2.20;;;;;;;20.17;52.66;100942.41;5095069;28;20052;-52
2022/06/12 07:10:03;;;;;;;5.75;2.85;;;;;;;20.27;52.41;100938.19;5098050;28;20158;-52
2022/06/12 07:12:34;;;;;;;6.65;2.92;;;;;;;20.31;52.68;100941.13;5095094;28;20052;-53
2022/06/12 07:15:01;;;;;;;6.15;2.00;;;;;;;20.42;52.62;100942.16;5099283;28;20040;-52
2022/06/12 07:17:29;;;;;;;3.88;1.70;;;;;;;20.48;51.28;100940.69;5095969;28;20059;-53
2022/06/12 07:19:56;;;;;;;4.65;1.48;;;;;;;20.55;49.41;100945.69;5094690;28;20048;-52
2022/06/12 07:22:25;;;;;;;5.13;2.30;;;;;;;20.61;49.78;100950.69;5101672;28;20054;-51
2022/06/12 07:24:53;;;;;;;6.05;2.17;;;;;;;20.74;49.08;100937.22;5115072;28;20051;-52
2022/06/12 07:27:20;;;;;;;6.38;2.10;;;;;;;20.80;48.39;100946.25;5114159;28;20423;-53
2022/06/12 07:29:47;;;;;;;5.18;2.05;;;;;;;20.95;49.46;100942.50;5115029;28;20391;-53
2022/06/12 07:32:15;;;;;;;4.53;1.60;;;;;;;21.08;48.67;100940.31;5114503;28;20480;-53
2022/06/12 07:34:43;;;;;;;5.10;2.00;;;;;;;21.19;48.73;100935.69;5096841;28;20059;-53
2022/06/12 07:37:11;;;;;;;6.38;2.10;;;;;;;21.27;47.94;100942.28;5088051;28;20483;-53
2022/06/12 07:39:41;;;;;;;8.98;2.28;;;;;;;21.43;47.72;100942.22;5082472;28;20048;-50
2022/06/12 07:42:09;;;;;;;7.45;2.15;;;;;;;21.49;47.53;100946.38;5085086;28;20048;-53
2022/06/12 07:44:38;;;;;;;5.88;2.00;;;;;;;21.62;46.46;100947.00;5091216;28;20067;-53
2022/06/12 07:47:06;;;;;;;6.07;2.28;;;;;;;21.62;45.03;100952.69;5079613;28;20049;-53
2022/06/12 07:49:36;;;;;;;7.57;2.45;;;;;;;21.68;46.83;100957.66;5101472;28;20043;-52
2022/06/12 07:52:08;;;;;;;7.70;2.17;;;;;;;21.85;46.06;100944.16;5093717;28;20062;-51
2022/06/12 07:54:37;;;;;;;7.10;2.03;;;;;;;22.12;44.54;100949.84;5106573;28;20098;-52
2022/06/12 07:57:08;;;;;;;6.85;2.10;;;;;;;22.61;41.50;100946.91;5086088;28;20063;-53
2022/06/12 07:59:36;;;;;;;6.13;2.35;;;;;;;23.45;39.56;100950.34;5092296;28;20059;-54
2022/06/12 08:02:04;;;;;;;7.78;2.85;;;;;;;24.13;39.30;100950.16;5081546;28;20051;-53
2022/06/12 08:04:31;;;;;;;6.50;2.28;;;;;;;25.13;38.87;100944.13;5091686;28;20365;-52
2022/06/12 08:06:59;;;;;;;4.80;2.15;;;;;;;26.21;36.85;100932.81;5087778;28;20429;-53
2022/06/12 08:09:27;;;;;;;5.90;2.20;;;;;;;27.16;34.68;100940.63;5094102;28;20488;-53
2022/06/12 08:11:55;;;;;;;5.15;1.85;;;;;;;27.85;32.15;100936.88;5100103;28;20055;-53
2022/06/12 08:14:25;;;;;;;7.25;2.30;;;;;;;28.36;31.64;100927.81;5089334;28;20048;-52
2022/06/12 08:16:53;;;;;;;6.85;2.20;;;;;;;29.28;30.77;100927.91;5081587;28;20431;-54
2022/06/12 08:22:07;;;;;;;6.32;2.60;;;;;;;31.21;28.90;100923.47;5091035;28;20074;-54
2022/06/12 08:24:36;;;;;;;4.82;2.20;;;;;;;32.16;27.08;100912.09;5085552;28;20052;-54
2022/06/12 08:27:04;;;;;;;6.32;2.28;;;;;;;33.40;26.18;100922.47;5091009;28;20040;-56
2022/06/12 08:29:35;;;;;;;5.67;2.43;;;;;;;34.42;24.24;100924.31;5093081;28;20044;-53
2022/06/12 08:32:08;;;;;;;6.80;2.25;;;;;;;35.33;22.63;100927.03;5090749;28;20498;-55
2022/06/12 08:34:43;;;;;;;6.03;2.30;;;;;;;35.64;21.84;100929.09;5073463;28;20408;-55
2022/06/12 08:37:14;;;;;;;7.03;2.47;;;;;;;36.58;21.09;100917.94;5081923;28;20059;-55
2022/06/12 08:39:43;;;;;;;10.13;2.70;;;;;;;36.65;20.01;100921.81;5086006;28;20052;-55
2022/06/12 08:42:13;;;;;;;;;;;;;;;37.45;20.89;100910.94;5104054;28;20047;-55
2022/06/12 08:44:51;;;;;;;7.13;2.45;;;;;;;37.52;20.60;100905.53;5095958;28;19921;-55
2022/06/12 08:47:21;;;;;;;;;;;;;;;37.79;20.99;100906.72;5080873;28;20059;-55
2022/06/12 08:49:54;;;;;;;7.78;2.88;;;;;;;38.85;19.69;100909.38;5099648;28;19926;-56
2022/06/12 08:52:28;;;;;;;6.32;2.70;;;;;;;39.77;18.88;100902.41;5106034;28;20058;-56
2022/06/12 08:55:05;;;;;;;5.65;2.67;;;;;;;39.98;17.99;100901.13;5111497;28;20064;-56
2022/06/12 08:57:37;;;;;;;5.75;2.50;;;;;;;40.58;18.51;100913.25;5082724;28;20051;-56
2022/06/12 09:00:09;;;;;;;6.57;2.70;;;;;;;40.90;16.48;100907.47;5086450;28;20052;-56
2022/06/12 09:02:39;;;;;;;6.88;2.42;;;;;;;41.24;15.56;100893.16;5109439;28;20047;-55
2022/06/12 09:05:09;;;;;;;7.00;2.70;;;;;;;40.98;16.32;100896.91;5092256;28;20052;-56
2022/06/12 09:07:46;;;;;;;5.55;2.47;;;;;;;41.07;15.77;100893.00;5091296;28;20052;-55
2022/06/12 09:10:22;;;;;;;4.00;2.05;;;;;;;41.24;15.29;100890.22;5085744;28;20044;-55
2022/06/12 09:12:53;;;;;;;4.88;2.25;;;;;;;41.54;15.29;100893.63;5087992;28;20052;-55
2022/06/12 09:15:32;;;;;;;5.20;2.25;;;;;;;41.75;15.38;100881.81;5091931;28;20048;-55
2022/06/12 09:18:15;;;;;;;5.90;2.30;;;;;;;41.88;14.63;100870.44;5090887;28;20496;-55
2022/06/12 09:20:49;;;;;;;3.88;1.90;;;;;;;42.61;15.81;100869.88;5072721;28;20064;-56
2022/06/12 09:23:31;;;;;;;4.78;2.28;;;;;;;42.53;14.81;100872.53;5071770;28;20079;-56
2022/06/12 09:26:07;;;;;;;4.90;2.20;;;;;;;42.33;14.68;100873.50;5086469;28;20052;-56
2022/06/12 09:28:43;;;;;;;4.90;2.72;;;;;;;42.66;15.29;100874.94;5071969;28;20060;-56
2022/06/12 09:31:19;;;;;;;5.78;2.13;;;;;;;42.98;13.27;100878.41;5095361;28;20047;-54
2022/06/12 09:33:52;;;;;;;5.38;2.28;;;;;;;42.14;13.51;100872.41;5094000;28;20051;-56
2022/06/12 09:36:36;;;;;;;4.80;1.88;;;;;;;42.14;13.74;100872.41;5091576;28;20489;-56
2022/06/12 09:39:11;;;;;;;4.85;2.33;;;;;;;42.42;13.73;100877.53;5087258;28;20044;-56
2022/06/12 09:41:47;;;;;;;6.35;2.20;;;;;;;42.59;13.22;100875.47;5091978;28;20064;-54
2022/06/12 09:44:18;;;;;;;3.92;2.00;;;;;;;42.47;13.39;100868.00;5087539;28;20381;-55
2022/06/12 09:47:05;;;;;;;6.60;2.65;;;;;;;42.61;14.48;100872.81;5093717;28;20403;-55
2022/06/12 09:49:39;;;;;;;5.30;2.07;;;;;;;42.20;14.64;100867.38;5087565;28;20055;-55
2022/06/12 09:52:36;;;;;;;4.30;2.00;;;;;;;43.23;14.24;100866.94;5092069;28;20142;-55
2022/06/12 09:55:11;;;;;;;4.55;2.10;;;;;;;42.35;13.57;100862.06;5079252;28;20064;-55
2022/06/12 09:57:49;;;;;;;7.68;2.83;;;;;;;41.07;14.29;100875.47;5088652;28;20045;-56
2022/06/12 10:00:23;;;;;;;6.68;2.60;;;;;;;40.36;15.08;100861.28;5090129;28;20047;-56
2022/06/12 10:03:00;;;;;;;5.70;2.40;;;;;;;41.12;15.21;100856.38;5102933;28;20048;-55
2022/06/12 10:05:29;;;;;;;;;;;;;;;41.52;15.42;100849.47;5083849;28;20051;-55
2022/06/12 10:08:04;;;;;;;5.22;2.10;;;;;;;42.52;13.93;100849.59;5090640;28;19928;-55
2022/06/12 10:10:39;;;;;;;4.78;1.92;;;;;;;42.89;13.94;100849.38;5074925;28;20067;-56
2022/06/12 10:13:12;;;;;;;4.32;1.95;;;;;;;42.91;13.95;100848.88;5078709;28;20492;-54
2022/06/12 10:15:42;;;;;;;5.43;2.00;;;;;;;43.27;13.69;100843.25;5089601;28;20059;-55
2022/06/12 10:18:17;;;;;;;6.63;2.50;;;;;;;43.08;13.66;100842.97;5097439;28;20056;-55
2022/06/12 10:20:47;;;;;;;5.65;2.50;;;;;;;43.68;13.68;100848.47;5095314;28;20059;-55
2022/06/12 10:23:15;;;;;;;4.53;2.28;;;;;;;43.94;13.60;100845.94;5097460;28;20488;-53
2022/06/12 10:25:49;;;;;;;3.90;1.90;;;;;;;44.45;12.07;100842.75;5089457;28;20044;-56
2022/06/12 10:28:26;;;;;;;2.47;1.70;;;;;;;44.19;12.44;100840.25;5077670;28;20052;-55
2022/06/12 10:31:07;;;;;;;4.18;1.98;;;;;;;44.69;11.92;100844.97;5104703;28;20055;-55
2022/06/12 10:33:50;;;;;;;3.13;1.80;;;;;;;44.72;11.12;100832.13;5071014;28;20056;-54
2022/06/12 10:36:22;;;;;;;3.05;1.48;;;;;;;44.07;12.25;100830.69;5089127;28;20056;-55
2022/06/12 10:38:50;;;;;;;3.10;1.75;;;;;;;44.68;12.38;100837.50;5079549;28;20052;-56
2022/06/12 10:41:24;;;;;;;3.58;1.73;;;;;;;45.02;11.27;100836.41;5088989;28;20602;-55
2022/06/12 10:43:54;;;;;;;4.15;1.80;;;;;;;45.83;10.01;100830.72;5086904;28;20049;-55
2022/06/12 10:46:28;;;;;;;4.03;1.90;;;;;;;44.77;10.80;100836.34;5089741;28;20040;-55
2022/06/12 10:49:01;;;;;;;3.50;1.70;;;;;;;45.22;12.15;100832.22;5080778;28;20487;-56
2022/06/12 10:51:34;;;;;;;3.50;1.65;;;;;;;45.48;10.65;100838.34;5106044;28;20066;-56
2022/06/12 10:54:09;;;;;;;4.78;1.70;;;;;;;45.89;9.98;100824.75;5108766;28;20052;-54
2022/06/12 10:56:46;;;;;;;5.28;2.03;;;;;;;46.06;10.42;100815.72;5091654;28;20134;-56
2022/06/12 10:59:36;;;;;;;2.22;1.45;;;;;;;46.69;9.95;100813.38;5100942;28;20058;-57
2022/06/12 11:02:48;;;;;;;4.00;1.83;;;;;;;46.63;9.61;100815.63;5116145;28;20062;-56
2022/06/12 11:05:47;;;;;;;2.47;1.50;;;;;;;47.09;8.79;100817.22;5097382;28;20480;-55
2022/06/12 11:08:29;;;;;;;2.80;1.40;;;;;;;46.48;8.57;100810.25;5086899;28;20070;-56
2022/06/12 11:11:11;;;;;;;3.88;1.45;;;;;;;46.55;8.90;100809.59;5115101;28;20051;-56
2022/06/12 11:13:56;;;;;;;2.75;1.77;;;;;;;46.52;8.79;100801.88;5115704;28;20063;-56
2022/06/12 11:16:35;;;;;;;2.38;1.40;;;;;;;46.76;8.48;100810.53;5092869;28;20043;-56
2022/06/12 11:19:23;;;;;;;2.50;1.42;;;;;;;45.94;9.42;100804.03;5091047;28;20055;-56
2022/06/12 11:22:00;;;;;;;2.75;1.30;;;;;;;45.18;9.11;100806.81;5092882;28;20055;-55
2022/06/12 11:24:31;;;;;;;;;;;;;;;45.02;10.02;100796.03;5111942;28;20055;-56
2022/06/12 11:27:21;;;;;;;2.05;1.27;;;;;;;45.40;9.31;100799.13;5092686;28;20291;-56
2022/06/12 11:30:23;;;;;;;2.47;1.63;;;;;;;45.12;10.42;100808.25;5074178;28;20053;-56
2022/06/12 11:33:08;;;;;;;2.58;1.27;;;;;;;44.83;9.69;100790.06;5073868;28;20052;-56
2022/06/12 11:35:43;;;;;;;2.72;1.30;;;;;;;44.68;10.32;100802.22;5083994;28;20629;-56
2022/06/12 11:38:27;;;;;;;2.70;1.30;;;;;;;45.15;9.29;100789.47;5077654;28;20053;-55
2022/06/12 11:41:03;;;;;;;2.30;1.20;;;;;;;45.04;9.64;100799.22;5093292;28;20550;-54
2022/06/12 11:43:36;;;;;;;2.65;1.25;;;;;;;45.01;10.03;100776.03;5082174;28;20047;-58
2022/06/12 11:46:24;;;;;;;3.80;1.60;;;;;;;44.86;10.92;100786.06;5086555;28;20052;-55
2022/06/12 11:49:34;;;;;;;2.90;1.33;;;;;;;44.70;9.77;100798.75;5095876;28;20052;-57
2022/06/12 11:52:20;;;;;;;2.75;1.40;;;;;;;44.86;10.97;100788.19;5049247;28;20164;-56
2022/06/12 11:55:04;;;;;;;5.18;2.00;;;;;;;45.12;10.57;100797.28;5078543;28;20044;-56
2022/06/12 11:57:46;;;;;;;3.33;1.50;;;;;;;44.76;9.67;100790.66;5091020;28;20063;-56
2022/06/12 12:00:17;;;;;;;3.28;1.70;;;;;;;44.91;10.54;100796.97;5084960;28;20063;-56
2022/06/12 12:03:01;;;;;;;3.13;1.35;;;;;;;45.10;9.76;100788.19;5085046;28;20049;-56
2022/06/12 12:05:46;;;;;;;2.58;1.40;;;;;;;45.26;10.04;100789.41;5104872;28;20056;-56
2022/06/12 12:08:34;;;;;;;3.00;1.50;;;;;;;45.08;10.22;100782.06;5083327;28;20048;-56